sensor_id;sensor_type;location;lat;lon;timestamp;P1;durP1;ratioP1;P2;durP2;ratioP2
10311;SDS011;5201;48.776;9.128;2023-04-03T00:01:12;1.80;;;1.70;;
10311;SDS011;5201;48.776;9.128;2023-04-03T00:03:38;3.83;;;2.00;;
10311;SDS011;5201;48.776;9.128;2023-04-03T00:06:05;2.27;;;1.80;;
10311;SDS011;5201;48.776;9.128;2023-04-03T00:08:32;4.33;;;1.73;;
10311;SDS011;5201;48.776;9.128;2023-04-03T00:10:57;1.60;;;1.50;;
10311;SDS011;5201;48.776;9.128;2023-04-03T00:13:23;4.17;;;1.73;;
10311;SDS011;5201;48.776;9.128;2023-04-03T00:15:50;3.17;;;1.70;;
10311;SDS011;5201;48.776;9.128;2023-04-03T00:18:16;4.73;;;1.70;;
10311;SDS011;5201;48.776;9.128;2023-04-03T00:20:41;1.93;;;1.60;;
10311;SDS011;5201;48.776;9.128;2023-04-03T00:23:07;2.87;;;1.80;;
10311;SDS011;5201;48.776;9.128;2023-04-03T00:25:33;3.27;;;1.63;;
10311;SDS011;5201;48.776;9.128;2023-04-03T00:27:59;1.70;;;1.60;;
10311;SDS011;5201;48.776;9.128;2023-04-03T00:30:24;2.10;;;1.70;;
10311;SDS011;5201;48.776;9.128;2023-04-03T00:32:50;2.03;;;1.83;;
10311;SDS011;5201;48.776;9.128;2023-04-03T00:35:17;2.67;;;1.67;;
10311;SDS011;5201;48.776;9.128;2023-04-03T00:37:44;2.97;;;1.40;;
10311;SDS011;5201;48.776;9.128;2023-04-03T00:40:10;2.07;;;1.77;;
10311;SDS011;5201;48.776;9.128;2023-04-03T00:42:37;1.90;;;1.60;;
10311;SDS011;5201;48.776;9.128;2023-04-03T00:47:31;2.60;;;1.80;;
10311;SDS011;5201;48.776;9.128;2023-04-03T00:49:57;2.03;;;1.90;;
10311;SDS011;5201;48.776;9.128;2023-04-03T00:52:25;1.83;;;1.63;;
10311;SDS011;5201;48.776;9.128;2023-04-03T00:54:54;2.00;;;1.80;;
10311;SDS011;5201;48.776;9.128;2023-04-03T00:57:22;3.13;;;1.93;;
10311;SDS011;5201;48.776;9.128;2023-04-03T00:59:50;2.03;;;1.60;;
10311;SDS011;5201;48.776;9.128;2023-04-03T01:02:20;4.90;;;2.30;;
10311;SDS011;5201;48.776;9.128;2023-04-03T01:04:46;2.07;;;1.97;;
10311;SDS011;5201;48.776;9.128;2023-04-03T01:07:14;1.80;;;1.70;;
10311;SDS011;5201;48.776;9.128;2023-04-03T01:09:47;2.07;;;1.53;;
10311;SDS011;5201;48.776;9.128;2023-04-03T01:14:59;2.80;;;1.73;;
10311;SDS011;5201;48.776;9.128;2023-04-03T01:17:33;3.00;;;1.70;;
10311;SDS011;5201;48.776;9.128;2023-04-03T01:22:56;1.80;;;1.70;;
10311;SDS011;5201;48.776;9.128;2023-04-03T01:25:38;6.30;;;1.80;;
10311;SDS011;5201;48.776;9.128;2023-04-03T01:28:13;1.80;;;1.70;;
10311;SDS011;5201;48.776;9.128;2023-04-03T01:30:47;4.00;;;1.70;;
10311;SDS011;5201;48.776;9.128;2023-04-03T01:33:23;2.63;;;2.03;;
10311;SDS011;5201;48.776;9.128;2023-04-03T01:35:49;2.13;;;1.60;;
10311;SDS011;5201;48.776;9.128;2023-04-03T01:38:14;3.73;;;2.03;;
10311;SDS011;5201;48.776;9.128;2023-04-03T01:40:40;1.93;;;1.63;;
10311;SDS011;5201;48.776;9.128;2023-04-03T01:43:06;3.57;;;1.80;;
10311;SDS011;5201;48.776;9.128;2023-04-03T01:45:32;1.80;;;1.70;;
10311;SDS011;5201;48.776;9.128;2023-04-03T01:47:58;2.63;;;1.97;;
10311;SDS011;5201;48.776;9.128;2023-04-03T01:50:24;6.50;;;2.30;;
10311;SDS011;5201;48.776;9.128;2023-04-03T01:52:49;3.43;;;1.97;;
10311;SDS011;5201;48.776;9.128;2023-04-03T01:55:15;2.87;;;2.03;;
10311;SDS011;5201;48.776;9.128;2023-04-03T01:57:41;1.60;;;1.50;;
10311;SDS011;5201;48.776;9.128;2023-04-03T02:00:07;2.03;;;1.83;;
10311;SDS011;5201;48.776;9.128;2023-04-03T02:02:33;2.10;;;1.70;;
10311;SDS011;5201;48.776;9.128;2023-04-03T02:04:58;2.40;;;2.00;;
10311;SDS011;5201;48.776;9.128;2023-04-03T02:07:24;2.10;;;1.90;;
10311;SDS011;5201;48.776;9.128;2023-04-03T02:09:50;4.77;;;2.00;;
10311;SDS011;5201;48.776;9.128;2023-04-03T02:12:16;3.30;;;2.00;;
10311;SDS011;5201;48.776;9.128;2023-04-03T02:14:42;2.87;;;1.50;;
10311;SDS011;5201;48.776;9.128;2023-04-03T02:17:07;2.97;;;2.10;;
10311;SDS011;5201;48.776;9.128;2023-04-03T02:19:36;2.30;;;1.83;;
10311;SDS011;5201;48.776;9.128;2023-04-03T02:22:02;3.60;;;2.37;;
10311;SDS011;5201;48.776;9.128;2023-04-03T02:24:28;2.00;;;1.90;;
10311;SDS011;5201;48.776;9.128;2023-04-03T02:26:54;1.73;;;1.63;;
10311;SDS011;5201;48.776;9.128;2023-04-03T02:29:20;1.60;;;1.50;;
10311;SDS011;5201;48.776;9.128;2023-04-03T02:31:45;2.23;;;1.77;;
10311;SDS011;5201;48.776;9.128;2023-04-03T02:34:11;2.53;;;1.90;;
10311;SDS011;5201;48.776;9.128;2023-04-03T02:36:37;2.77;;;2.17;;
10311;SDS011;5201;48.776;9.128;2023-04-03T02:39:02;2.40;;;2.17;;
10311;SDS011;5201;48.776;9.128;2023-04-03T02:41:28;2.63;;;1.80;;
10311;SDS011;5201;48.776;9.128;2023-04-03T02:43:59;2.33;;;1.80;;
10311;SDS011;5201;48.776;9.128;2023-04-03T02:46:26;2.60;;;2.17;;
10311;SDS011;5201;48.776;9.128;2023-04-03T02:48:51;2.53;;;1.87;;
10311;SDS011;5201;48.776;9.128;2023-04-03T02:51:17;4.60;;;1.87;;
10311;SDS011;5201;48.776;9.128;2023-04-03T02:53:42;1.63;;;1.53;;
10311;SDS011;5201;48.776;9.128;2023-04-03T02:56:08;2.43;;;1.97;;
10311;SDS011;5201;48.776;9.128;2023-04-03T02:58:34;2.10;;;2.00;;
10311;SDS011;5201;48.776;9.128;2023-04-03T03:01:00;1.90;;;1.80;;
10311;SDS011;5201;48.776;9.128;2023-04-03T03:03:26;2.77;;;1.60;;
10311;SDS011;5201;48.776;9.128;2023-04-03T03:06:08;4.10;;;1.80;;
10311;SDS011;5201;48.776;9.128;2023-04-03T03:08:35;1.83;;;1.73;;
10311;SDS011;5201;48.776;9.128;2023-04-03T03:11:02;2.20;;;2.00;;
10311;SDS011;5201;48.776;9.128;2023-04-03T03:13:28;2.23;;;1.80;;
10311;SDS011;5201;48.776;9.128;2023-04-03T03:15:54;2.23;;;2.03;;
10311;SDS011;5201;48.776;9.128;2023-04-03T03:18:20;2.17;;;1.60;;
10311;SDS011;5201;48.776;9.128;2023-04-03T03:20:46;2.60;;;1.60;;
10311;SDS011;5201;48.776;9.128;2023-04-03T03:23:11;3.47;;;1.97;;
10311;SDS011;5201;48.776;9.128;2023-04-03T03:25:38;1.67;;;1.57;;
10311;SDS011;5201;48.776;9.128;2023-04-03T03:28:04;2.47;;;2.00;;
10311;SDS011;5201;48.776;9.128;2023-04-03T03:30:30;2.13;;;1.97;;
10311;SDS011;5201;48.776;9.128;2023-04-03T03:32:56;2.87;;;2.03;;
10311;SDS011;5201;48.776;9.128;2023-04-03T03:35:21;3.40;;;2.00;;
10311;SDS011;5201;48.776;9.128;2023-04-03T03:37:47;2.03;;;1.87;;
10311;SDS011;5201;48.776;9.128;2023-04-03T03:40:12;1.90;;;1.80;;
10311;SDS011;5201;48.776;9.128;2023-04-03T03:42:38;3.23;;;2.13;;
10311;SDS011;5201;48.776;9.128;2023-04-03T03:45:04;2.37;;;2.07;;
10311;SDS011;5201;48.776;9.128;2023-04-03T03:47:31;4.97;;;1.67;;
10311;SDS011;5201;48.776;9.128;2023-04-03T03:49:56;2.87;;;1.90;;
10311;SDS011;5201;48.776;9.128;2023-04-03T03:52:22;3.27;;;1.67;;
10311;SDS011;5201;48.776;9.128;2023-04-03T03:54:47;2.13;;;1.80;;
10311;SDS011;5201;48.776;9.128;2023-04-03T03:57:13;3.37;;;1.97;;
10311;SDS011;5201;48.776;9.128;2023-04-03T03:59:38;2.43;;;1.73;;
10311;SDS011;5201;48.776;9.128;2023-04-03T04:02:06;2.03;;;1.83;;
10311;SDS011;5201;48.776;9.128;2023-04-03T04:04:32;2.30;;;1.67;;
10311;SDS011;5201;48.776;9.128;2023-04-03T04:06:58;1.87;;;1.77;;
10311;SDS011;5201;48.776;9.128;2023-04-03T04:09:25;1.80;;;1.70;;
10311;SDS011;5201;48.776;9.128;2023-04-03T04:11:51;2.07;;;1.67;;
10311;SDS011;5201;48.776;9.128;2023-04-03T04:14:17;2.23;;;2.03;;
10311;SDS011;5201;48.776;9.128;2023-04-03T04:16:42;6.10;;;1.87;;
10311;SDS011;5201;48.776;9.128;2023-04-03T04:19:08;2.17;;;1.90;;
10311;SDS011;5201;48.776;9.128;2023-04-03T04:21:34;1.80;;;1.60;;
10311;SDS011;5201;48.776;9.128;2023-04-03T04:24:00;2.13;;;1.93;;
10311;SDS011;5201;48.776;9.128;2023-04-03T04:26:25;2.00;;;1.70;;
10311;SDS011;5201;48.776;9.128;2023-04-03T04:28:51;3.20;;;1.90;;
10311;SDS011;5201;48.776;9.128;2023-04-03T04:31:17;2.07;;;1.67;;
10311;SDS011;5201;48.776;9.128;2023-04-03T04:33:42;2.47;;;1.90;;
10311;SDS011;5201;48.776;9.128;2023-04-03T04:36:08;2.73;;;1.70;;
10311;SDS011;5201;48.776;9.128;2023-04-03T04:38:33;1.90;;;1.70;;
10311;SDS011;5201;48.776;9.128;2023-04-03T04:40:59;3.53;;;1.77;;
10311;SDS011;5201;48.776;9.128;2023-04-03T04:43:25;2.37;;;1.80;;
10311;SDS011;5201;48.776;9.128;2023-04-03T04:46:00;2.60;;;1.80;;
10311;SDS011;5201;48.776;9.128;2023-04-03T04:48:26;1.90;;;1.53;;
10311;SDS011;5201;48.776;9.128;2023-04-03T04:50:52;2.20;;;1.90;;
10311;SDS011;5201;48.776;9.128;2023-04-03T04:53:17;1.90;;;1.80;;
10311;SDS011;5201;48.776;9.128;2023-04-03T04:55:43;4.07;;;2.03;;
10311;SDS011;5201;48.776;9.128;2023-04-03T04:58:08;1.80;;;1.70;;
10311;SDS011;5201;48.776;9.128;2023-04-03T05:00:34;2.37;;;1.93;;
10311;SDS011;5201;48.776;9.128;2023-04-03T05:03:00;1.80;;;1.70;;
10311;SDS011;5201;48.776;9.128;2023-04-03T05:05:25;2.03;;;1.60;;
10311;SDS011;5201;48.776;9.128;2023-04-03T05:07:51;3.70;;;2.00;;
10311;SDS011;5201;48.776;9.128;2023-04-03T05:10:16;1.93;;;1.53;;
10311;SDS011;5201;48.776;9.128;2023-04-03T05:12:42;2.20;;;1.67;;
10311;SDS011;5201;48.776;9.128;2023-04-03T05:15:08;1.77;;;1.60;;
10311;SDS011;5201;48.776;9.128;2023-04-03T05:17:34;2.00;;;1.63;;
10311;SDS011;5201;48.776;9.128;2023-04-03T05:19:59;1.57;;;1.30;;
10311;SDS011;5201;48.776;9.128;2023-04-03T05:22:25;2.00;;;1.90;;
10311;SDS011;5201;48.776;9.128;2023-04-03T05:24:51;2.17;;;1.50;;
10311;SDS011;5201;48.776;9.128;2023-04-03T05:27:16;2.20;;;1.30;;
10311;SDS011;5201;48.776;9.128;2023-04-03T05:29:42;2.00;;;1.80;;
10311;SDS011;5201;48.776;9.128;2023-04-03T05:32:09;3.27;;;2.37;;
10311;SDS011;5201;48.776;9.128;2023-04-03T05:34:35;3.30;;;2.20;;
10311;SDS011;5201;48.776;9.128;2023-04-03T05:37:01;3.33;;;2.20;;
10311;SDS011;5201;48.776;9.128;2023-04-03T05:39:28;1.90;;;1.70;;
10311;SDS011;5201;48.776;9.128;2023-04-03T05:41:53;1.90;;;1.70;;
10311;SDS011;5201;48.776;9.128;2023-04-03T05:44:19;3.30;;;1.80;;
10311;SDS011;5201;48.776;9.128;2023-04-03T05:46:45;1.73;;;1.33;;
10311;SDS011;5201;48.776;9.128;2023-04-03T05:49:10;1.90;;;1.73;;
10311;SDS011;5201;48.776;9.128;2023-04-03T05:51:36;2.33;;;1.60;;
10311;SDS011;5201;48.776;9.128;2023-04-03T05:54:06;3.17;;;1.80;;
10311;SDS011;5201;48.776;9.128;2023-04-03T05:56:42;3.03;;;1.50;;
10311;SDS011;5201;48.776;9.128;2023-04-03T05:59:08;2.43;;;1.50;;
10311;SDS011;5201;48.776;9.128;2023-04-03T06:01:34;1.80;;;1.70;;
10311;SDS011;5201;48.776;9.128;2023-04-03T06:04:00;1.50;;;1.40;;
10311;SDS011;5201;48.776;9.128;2023-04-03T06:06:26;2.03;;;1.73;;
10311;SDS011;5201;48.776;9.128;2023-04-03T06:09:11;1.90;;;1.80;;
10311;SDS011;5201;48.776;9.128;2023-04-03T06:11:37;2.17;;;1.97;;
10311;SDS011;5201;48.776;9.128;2023-04-03T06:14:04;2.50;;;1.80;;
10311;SDS011;5201;48.776;9.128;2023-04-03T06:16:29;2.13;;;1.93;;
10311;SDS011;5201;48.776;9.128;2023-04-03T06:18:55;1.60;;;1.50;;
10311;SDS011;5201;48.776;9.128;2023-04-03T06:21:21;1.50;;;1.40;;
10311;SDS011;5201;48.776;9.128;2023-04-03T06:23:46;1.60;;;1.40;;
10311;SDS011;5201;48.776;9.128;2023-04-03T06:26:12;1.90;;;1.63;;
10311;SDS011;5201;48.776;9.128;2023-04-03T06:28:38;3.00;;;1.60;;
10311;SDS011;5201;48.776;9.128;2023-04-03T06:31:03;3.50;;;1.67;;
10311;SDS011;5201;48.776;9.128;2023-04-03T06:33:29;1.60;;;1.50;;
10311;SDS011;5201;48.776;9.128;2023-04-03T06:35:55;3.67;;;2.00;;
10311;SDS011;5201;48.776;9.128;2023-04-03T06:38:25;3.23;;;1.70;;
10311;SDS011;5201;48.776;9.128;2023-04-03T06:40:51;1.87;;;1.60;;
10311;SDS011;5201;48.776;9.128;2023-04-03T06:43:17;5.77;;;1.63;;
10311;SDS011;5201;48.776;9.128;2023-04-03T06:45:42;1.57;;;1.47;;
10311;SDS011;5201;48.776;9.128;2023-04-03T06:48:08;1.40;;;1.30;;
10311;SDS011;5201;48.776;9.128;2023-04-03T06:50:34;1.87;;;1.57;;
10311;SDS011;5201;48.776;9.128;2023-04-03T06:53:00;3.23;;;1.73;;
10311;SDS011;5201;48.776;9.128;2023-04-03T06:55:26;1.50;;;1.40;;
10311;SDS011;5201;48.776;9.128;2023-04-03T06:57:51;1.60;;;1.50;;
10311;SDS011;5201;48.776;9.128;2023-04-03T07:00:17;1.80;;;1.50;;
10311;SDS011;5201;48.776;9.128;2023-04-03T07:02:44;2.87;;;1.77;;
10311;SDS011;5201;48.776;9.128;2023-04-03T07:05:10;2.03;;;1.80;;
10311;SDS011;5201;48.776;9.128;2023-04-03T07:07:36;5.13;;;1.70;;
10311;SDS011;5201;48.776;9.128;2023-04-03T07:10:03;2.87;;;1.90;;
10311;SDS011;5201;48.776;9.128;2023-04-03T07:12:29;3.00;;;1.80;;
10311;SDS011;5201;48.776;9.128;2023-04-03T07:14:55;3.00;;;1.87;;
10311;SDS011;5201;48.776;9.128;2023-04-03T07:17:22;3.67;;;1.90;;
10311;SDS011;5201;48.776;9.128;2023-04-03T07:19:47;3.20;;;1.83;;
10311;SDS011;5201;48.776;9.128;2023-04-03T07:22:13;1.60;;;1.50;;
10311;SDS011;5201;48.776;9.128;2023-04-03T07:24:39;3.13;;;1.90;;
10311;SDS011;5201;48.776;9.128;2023-04-03T07:27:04;2.83;;;1.60;;
10311;SDS011;5201;48.776;9.128;2023-04-03T07:29:30;1.60;;;1.50;;
10311;SDS011;5201;48.776;9.128;2023-04-03T07:31:56;1.83;;;1.63;;
10311;SDS011;5201;48.776;9.128;2023-04-03T07:34:22;2.40;;;1.90;;
10311;SDS011;5201;48.776;9.128;2023-04-03T07:36:48;2.03;;;1.57;;
10311;SDS011;5201;48.776;9.128;2023-04-03T07:39:13;3.20;;;2.00;;
10311;SDS011;5201;48.776;9.128;2023-04-03T07:41:39;2.07;;;1.87;;
10311;SDS011;5201;48.776;9.128;2023-04-03T07:44:05;1.80;;;1.43;;
10311;SDS011;5201;48.776;9.128;2023-04-03T07:46:31;2.00;;;1.80;;
10311;SDS011;5201;48.776;9.128;2023-04-03T07:48:56;6.37;;;1.93;;
10311;SDS011;5201;48.776;9.128;2023-04-03T07:51:22;1.63;;;1.53;;
10311;SDS011;5201;48.776;9.128;2023-04-03T07:53:49;4.40;;;1.60;;
10311;SDS011;5201;48.776;9.128;2023-04-03T07:56:16;2.03;;;1.80;;
10311;SDS011;5201;48.776;9.128;2023-04-03T07:58:42;1.73;;;1.57;;
10311;SDS011;5201;48.776;9.128;2023-04-03T08:01:07;4.30;;;2.07;;
10311;SDS011;5201;48.776;9.128;2023-04-03T08:03:33;1.60;;;1.43;;
10311;SDS011;5201;48.776;9.128;2023-04-03T08:06:03;2.07;;;1.83;;
10311;SDS011;5201;48.776;9.128;2023-04-03T08:08:29;7.87;;;2.03;;
10311;SDS011;5201;48.776;9.128;2023-04-03T08:10:57;1.73;;;1.63;;
10311;SDS011;5201;48.776;9.128;2023-04-03T08:13:24;2.47;;;1.93;;
10311;SDS011;5201;48.776;9.128;2023-04-03T08:15:50;1.80;;;1.37;;
10311;SDS011;5201;48.776;9.128;2023-04-03T08:18:16;1.43;;;1.33;;
10311;SDS011;5201;48.776;9.128;2023-04-03T08:20:43;2.70;;;1.70;;
10311;SDS011;5201;48.776;9.128;2023-04-03T08:23:10;2.83;;;1.93;;
10311;SDS011;5201;48.776;9.128;2023-04-03T08:25:39;4.47;;;1.83;;
10311;SDS011;5201;48.776;9.128;2023-04-03T08:28:06;3.07;;;1.70;;
10311;SDS011;5201;48.776;9.128;2023-04-03T08:30:32;3.63;;;1.60;;
10311;SDS011;5201;48.776;9.128;2023-04-03T08:33:00;3.30;;;1.87;;
10311;SDS011;5201;48.776;9.128;2023-04-03T08:35:26;2.13;;;1.77;;
10311;SDS011;5201;48.776;9.128;2023-04-03T08:37:52;1.87;;;1.70;;
10311;SDS011;5201;48.776;9.128;2023-04-03T08:40:18;5.40;;;1.80;;
10311;SDS011;5201;48.776;9.128;2023-04-03T08:42:49;2.80;;;1.80;;
10311;SDS011;5201;48.776;9.128;2023-04-03T08:45:42;5.93;;;2.10;;
10311;SDS011;5201;48.776;9.128;2023-04-03T08:48:13;2.00;;;1.87;;
10311;SDS011;5201;48.776;9.128;2023-04-03T08:50:49;2.07;;;1.50;;
10311;SDS011;5201;48.776;9.128;2023-04-03T08:53:19;2.20;;;1.83;;
10311;SDS011;5201;48.776;9.128;2023-04-03T08:55:49;1.67;;;1.40;;
10311;SDS011;5201;48.776;9.128;2023-04-03T08:58:19;2.20;;;1.53;;
10311;SDS011;5201;48.776;9.128;2023-04-03T09:00:51;2.40;;;1.70;;
10311;SDS011;5201;48.776;9.128;2023-04-03T09:03:22;3.70;;;1.60;;
10311;SDS011;5201;48.776;9.128;2023-04-03T09:06:00;1.90;;;1.70;;
10311;SDS011;5201;48.776;9.128;2023-04-03T09:09:11;1.70;;;1.60;;
10311;SDS011;5201;48.776;9.128;2023-04-03T09:11:46;2.33;;;1.33;;
10311;SDS011;5201;48.776;9.128;2023-04-03T09:14:36;3.53;;;1.83;;
10311;SDS011;5201;48.776;9.128;2023-04-03T09:17:31;2.87;;;1.93;;
10311;SDS011;5201;48.776;9.128;2023-04-03T09:23:00;6.87;;;1.90;;
10311;SDS011;5201;48.776;9.128;2023-04-03T09:25:30;5.57;;;1.87;;
10311;SDS011;5201;48.776;9.128;2023-04-03T09:27:59;2.90;;;1.60;;
10311;SDS011;5201;48.776;9.128;2023-04-03T09:30:26;4.70;;;1.50;;
10311;SDS011;5201;48.776;9.128;2023-04-03T09:32:53;2.80;;;2.00;;
10311;SDS011;5201;48.776;9.128;2023-04-03T09:35:27;3.70;;;1.80;;
10311;SDS011;5201;48.776;9.128;2023-04-03T09:38:01;2.60;;;1.47;;
10311;SDS011;5201;48.776;9.128;2023-04-03T09:40:43;3.27;;;1.33;;
10311;SDS011;5201;48.776;9.128;2023-04-03T09:43:19;1.83;;;1.60;;
10311;SDS011;5201;48.776;9.128;2023-04-03T09:45:48;2.33;;;1.67;;
10311;SDS011;5201;48.776;9.128;2023-04-03T09:48:16;1.90;;;1.70;;
10311;SDS011;5201;48.776;9.128;2023-04-03T09:53:32;2.63;;;1.20;;
10311;SDS011;5201;48.776;9.128;2023-04-03T09:56:04;7.57;;;1.87;;
10311;SDS011;5201;48.776;9.128;2023-04-03T09:58:44;6.87;;;1.57;;
10311;SDS011;5201;48.776;9.128;2023-04-03T10:01:37;7.57;;;1.50;;
10311;SDS011;5201;48.776;9.128;2023-04-03T10:06:41;1.70;;;1.60;;
10311;SDS011;5201;48.776;9.128;2023-04-03T10:09:19;1.67;;;1.50;;
10311;SDS011;5201;48.776;9.128;2023-04-03T10:12:08;2.07;;;1.30;;
10311;SDS011;5201;48.776;9.128;2023-04-03T10:14:34;1.67;;;1.17;;
10311;SDS011;5201;48.776;9.128;2023-04-03T10:17:03;2.50;;;1.50;;
10311;SDS011;5201;48.776;9.128;2023-04-03T10:19:48;1.70;;;1.30;;
10311;SDS011;5201;48.776;9.128;2023-04-03T10:25:27;3.23;;;1.50;;
10311;SDS011;5201;48.776;9.128;2023-04-03T10:37:06;3.57;;;1.50;;
10311;SDS011;5201;48.776;9.128;2023-04-03T10:40:15;4.10;;;1.40;;
10311;SDS011;5201;48.776;9.128;2023-04-03T10:42:58;1.40;;;1.30;;
10311;SDS011;5201;48.776;9.128;2023-04-03T10:48:18;3.67;;;1.80;;
10311;SDS011;5201;48.776;9.128;2023-04-03T10:50:52;2.93;;;1.63;;
10311;SDS011;5201;48.776;9.128;2023-04-03T10:58:36;2.50;;;1.50;;
10311;SDS011;5201;48.776;9.128;2023-04-03T11:01:23;1.20;;;1.20;;
10311;SDS011;5201;48.776;9.128;2023-04-03T11:03:54;1.60;;;1.30;;
10311;SDS011;5201;48.776;9.128;2023-04-03T11:06:23;2.43;;;1.30;;
10311;SDS011;5201;48.776;9.128;2023-04-03T11:08:59;1.13;;;1.07;;
10311;SDS011;5201;48.776;9.128;2023-04-03T11:11:35;1.20;;;1.10;;
10311;SDS011;5201;48.776;9.128;2023-04-03T11:14:14;1.97;;;1.20;;
10311;SDS011;5201;48.776;9.128;2023-04-03T11:16:45;1.90;;;1.27;;
10311;SDS011;5201;48.776;9.128;2023-04-03T11:19:17;2.20;;;1.30;;
10311;SDS011;5201;48.776;9.128;2023-04-03T11:22:24;1.40;;;1.30;;
10311;SDS011;5201;48.776;9.128;2023-04-03T11:24:58;1.87;;;1.00;;
10311;SDS011;5201;48.776;9.128;2023-04-03T11:27:56;2.03;;;1.30;;
10311;SDS011;5201;48.776;9.128;2023-04-03T11:35:51;3.33;;;1.30;;
10311;SDS011;5201;48.776;9.128;2023-04-03T11:38:21;1.07;;;1.00;;
10311;SDS011;5201;48.776;9.128;2023-04-03T11:40:54;0.80;;;0.80;;
10311;SDS011;5201;48.776;9.128;2023-04-03T11:43:23;2.90;;;1.60;;
10311;SDS011;5201;48.776;9.128;2023-04-03T11:45:54;1.37;;;1.27;;
10311;SDS011;5201;48.776;9.128;2023-04-03T11:50:57;2.17;;;1.50;;
10311;SDS011;5201;48.776;9.128;2023-04-03T11:53:28;2.87;;;1.40;;
10311;SDS011;5201;48.776;9.128;2023-04-03T12:01:51;1.10;;;1.07;;
10311;SDS011;5201;48.776;9.128;2023-04-03T12:04:22;2.70;;;1.50;;
10311;SDS011;5201;48.776;9.128;2023-04-03T12:06:54;1.30;;;1.20;;
10311;SDS011;5201;48.776;9.128;2023-04-03T12:09:33;2.43;;;1.27;;
10311;SDS011;5201;48.776;9.128;2023-04-03T12:12:36;1.50;;;1.20;;
10311;SDS011;5201;48.776;9.128;2023-04-03T12:15:18;5.37;;;1.30;;
10311;SDS011;5201;48.776;9.128;2023-04-03T12:17:50;1.77;;;1.40;;
10311;SDS011;5201;48.776;9.128;2023-04-03T12:23:29;2.40;;;1.50;;
10311;SDS011;5201;48.776;9.128;2023-04-03T12:28:44;1.67;;;1.40;;
10311;SDS011;5201;48.776;9.128;2023-04-03T12:31:11;2.87;;;1.00;;
10311;SDS011;5201;48.776;9.128;2023-04-03T12:33:39;1.50;;;1.17;;
10311;SDS011;5201;48.776;9.128;2023-04-03T12:36:42;1.43;;;1.00;;
10311;SDS011;5201;48.776;9.128;2023-04-03T12:39:25;1.17;;;1.10;;
10311;SDS011;5201;48.776;9.128;2023-04-03T12:45:03;3.63;;;1.67;;
10311;SDS011;5201;48.776;9.128;2023-04-03T12:47:35;2.50;;;1.40;;
10311;SDS011;5201;48.776;9.128;2023-04-03T12:50:03;0.90;;;0.90;;
10311;SDS011;5201;48.776;9.128;2023-04-03T12:52:41;2.90;;;1.63;;
10311;SDS011;5201;48.776;9.128;2023-04-03T12:55:17;4.00;;;1.20;;
10311;SDS011;5201;48.776;9.128;2023-04-03T12:57:45;4.27;;;1.40;;
10311;SDS011;5201;48.776;9.128;2023-04-03T13:00:22;4.03;;;1.20;;
10311;SDS011;5201;48.776;9.128;2023-04-03T13:02:57;1.37;;;1.27;;
10311;SDS011;5201;48.776;9.128;2023-04-03T13:05:24;1.73;;;1.20;;
10311;SDS011;5201;48.776;9.128;2023-04-03T13:07:55;1.20;;;1.10;;
10311;SDS011;5201;48.776;9.128;2023-04-03T13:10:25;1.87;;;1.20;;
10311;SDS011;5201;48.776;9.128;2023-04-03T13:12:55;2.10;;;1.07;;
10311;SDS011;5201;48.776;9.128;2023-04-03T13:15:26;1.23;;;1.10;;
10311;SDS011;5201;48.776;9.128;2023-04-03T13:17:53;3.40;;;1.20;;
10311;SDS011;5201;48.776;9.128;2023-04-03T13:22:49;2.50;;;1.17;;
10311;SDS011;5201;48.776;9.128;2023-04-03T13:25:19;2.37;;;1.30;;
10311;SDS011;5201;48.776;9.128;2023-04-03T13:27:47;1.40;;;1.10;;
10311;SDS011;5201;48.776;9.128;2023-04-03T13:30:20;1.30;;;1.20;;
10311;SDS011;5201;48.776;9.128;2023-04-03T13:32:58;1.67;;;1.03;;
10311;SDS011;5201;48.776;9.128;2023-04-03T13:40:59;2.87;;;1.47;;
10311;SDS011;5201;48.776;9.128;2023-04-03T13:43:28;1.50;;;1.37;;
10311;SDS011;5201;48.776;9.128;2023-04-03T13:46:02;1.30;;;1.20;;
10311;SDS011;5201;48.776;9.128;2023-04-03T13:51:16;1.50;;;1.17;;
10311;SDS011;5201;48.776;9.128;2023-04-03T13:53:58;1.47;;;1.03;;
10311;SDS011;5201;48.776;9.128;2023-04-03T13:56:27;3.17;;;1.37;;
10311;SDS011;5201;48.776;9.128;2023-04-03T14:04:30;1.37;;;0.97;;
10311;SDS011;5201;48.776;9.128;2023-04-03T14:06:57;1.17;;;1.07;;
10311;SDS011;5201;48.776;9.128;2023-04-03T14:09:24;1.40;;;1.30;;
10311;SDS011;5201;48.776;9.128;2023-04-03T14:11:57;1.53;;;1.17;;
10311;SDS011;5201;48.776;9.128;2023-04-03T14:14:32;2.60;;;1.40;;
10311;SDS011;5201;48.776;9.128;2023-04-03T14:17:03;1.30;;;1.20;;
10311;SDS011;5201;48.776;9.128;2023-04-03T14:19:37;2.03;;;1.53;;
10311;SDS011;5201;48.776;9.128;2023-04-03T14:22:10;4.33;;;1.47;;
10311;SDS011;5201;48.776;9.128;2023-04-03T14:24:42;1.60;;;1.20;;
10311;SDS011;5201;48.776;9.128;2023-04-03T14:27:16;2.73;;;1.20;;
10311;SDS011;5201;48.776;9.128;2023-04-03T14:29:41;1.27;;;1.17;;
10311;SDS011;5201;48.776;9.128;2023-04-03T14:32:09;2.93;;;1.00;;
10311;SDS011;5201;48.776;9.128;2023-04-03T14:34:38;2.17;;;1.30;;
10311;SDS011;5201;48.776;9.128;2023-04-03T14:37:04;1.23;;;1.13;;
10311;SDS011;5201;48.776;9.128;2023-04-03T14:39:34;1.00;;;1.00;;
10311;SDS011;5201;48.776;9.128;2023-04-03T14:41:59;1.20;;;1.17;;
10311;SDS011;5201;48.776;9.128;2023-04-03T14:44:25;1.37;;;1.27;;
10311;SDS011;5201;48.776;9.128;2023-04-03T14:46:51;1.40;;;1.30;;
10311;SDS011;5201;48.776;9.128;2023-04-03T14:49:21;1.70;;;1.50;;
10311;SDS011;5201;48.776;9.128;2023-04-03T14:51:50;1.80;;;1.20;;
10311;SDS011;5201;48.776;9.128;2023-04-03T14:54:17;1.70;;;1.20;;
10311;SDS011;5201;48.776;9.128;2023-04-03T14:56:50;1.90;;;1.23;;
10311;SDS011;5201;48.776;9.128;2023-04-03T14:59:16;1.73;;;1.30;;
10311;SDS011;5201;48.776;9.128;2023-04-03T15:01:44;1.20;;;1.07;;
10311;SDS011;5201;48.776;9.128;2023-04-03T15:04:12;1.57;;;1.10;;
10311;SDS011;5201;48.776;9.128;2023-04-03T15:06:39;1.30;;;1.20;;
10311;SDS011;5201;48.776;9.128;2023-04-03T15:09:05;1.40;;;1.30;;
10311;SDS011;5201;48.776;9.128;2023-04-03T15:11:36;2.17;;;1.47;;
10311;SDS011;5201;48.776;9.128;2023-04-03T15:14:02;2.33;;;1.37;;
10311;SDS011;5201;48.776;9.128;2023-04-03T15:16:27;2.60;;;1.20;;
10311;SDS011;5201;48.776;9.128;2023-04-03T15:18:53;3.63;;;1.37;;
10311;SDS011;5201;48.776;9.128;2023-04-03T15:21:18;1.40;;;1.30;;
10311;SDS011;5201;48.776;9.128;2023-04-03T15:23:44;1.50;;;1.00;;
10311;SDS011;5201;48.776;9.128;2023-04-03T15:26:10;2.20;;;1.30;;
10311;SDS011;5201;48.776;9.128;2023-04-03T15:28:37;1.33;;;1.17;;
10311;SDS011;5201;48.776;9.128;2023-04-03T15:31:05;1.37;;;1.30;;
10311;SDS011;5201;48.776;9.128;2023-04-03T15:33:32;0.90;;;0.90;;
10311;SDS011;5201;48.776;9.128;2023-04-03T15:35:59;2.07;;;1.10;;
10311;SDS011;5201;48.776;9.128;2023-04-03T15:38:25;2.90;;;1.37;;
10311;SDS011;5201;48.776;9.128;2023-04-03T15:40:50;2.20;;;1.33;;
10311;SDS011;5201;48.776;9.128;2023-04-03T15:43:16;1.20;;;1.10;;
10311;SDS011;5201;48.776;9.128;2023-04-03T15:45:42;1.63;;;1.30;;
10311;SDS011;5201;48.776;9.128;2023-04-03T15:48:09;1.00;;;1.00;;
10311;SDS011;5201;48.776;9.128;2023-04-03T15:50:35;2.40;;;1.30;;
10311;SDS011;5201;48.776;9.128;2023-04-03T15:53:01;1.00;;;1.00;;
10311;SDS011;5201;48.776;9.128;2023-04-03T15:55:28;2.07;;;1.27;;
10311;SDS011;5201;48.776;9.128;2023-04-03T15:57:55;1.10;;;1.00;;
10311;SDS011;5201;48.776;9.128;2023-04-03T16:00:21;1.30;;;1.20;;
10311;SDS011;5201;48.776;9.128;2023-04-03T16:02:48;1.20;;;1.10;;
10311;SDS011;5201;48.776;9.128;2023-04-03T16:05:18;1.33;;;1.23;;
10311;SDS011;5201;48.776;9.128;2023-04-03T16:07:44;1.53;;;1.00;;
10311;SDS011;5201;48.776;9.128;2023-04-03T16:10:12;1.20;;;1.10;;
10311;SDS011;5201;48.776;9.128;2023-04-03T16:12:38;1.37;;;1.10;;
10311;SDS011;5201;48.776;9.128;2023-04-03T16:15:04;2.23;;;1.03;;
10311;SDS011;5201;48.776;9.128;2023-04-03T16:17:31;1.27;;;1.00;;
10311;SDS011;5201;48.776;9.128;2023-04-03T16:19:58;1.50;;;1.10;;
10311;SDS011;5201;48.776;9.128;2023-04-03T16:22:25;1.30;;;1.20;;
10311;SDS011;5201;48.776;9.128;2023-04-03T16:24:52;2.57;;;1.03;;
10311;SDS011;5201;48.776;9.128;2023-04-03T16:27:18;1.00;;;0.93;;